Terminal Aerodrome Forecast
Issued by NWS Des Moines, IA

Home | Current Version | Previous Version | Text Only | Print | Product List | Glossary On
Versions: 1 2 3 4 5 6 7 8 9 10 11 12 13 14 15 16 17 18
000
FTUS43 KDMX 190535
TAFALO
TAF
KALO 190535Z 1906/2006 00000KT P6SM VCTS BKN050CB
      TEMPO 1906/1907 24020G30KT -SHRA SCT035 BKN080
     FM190700 VRB03KT P6SM SCT120
     FM190900 VRB03KT 5SM BR SKC
     FM191000 00000KT 4SM BR SKC
     FM191100 00000KT 2SM BR SKC
     FM191300 VRB03KT 5SM BR SKC
     FM191400 20003KT P6SM SCT050=

USA.gov is the U.S. government's official web portal to all federal, state and local government web resources and services.